Serene Lydia — C6YE7 — position and weather

sailwx.info

Track history (hours):
 
Tides and Currents Weather Stations Pressure Air Temp Water Temp Dewpoint Dewpoint Depression Visibility Wind Speed Wind Dir Waves Ship Positions

Serene Lydia

Last reported at 2017-Apr-28 21:38 UTC. Time now 2017-Apr-29 19:24 UTC.
Position N 31°15' E 029°47'.

Length 190 m; draft 12.8 m.

Type: Ship. MMSI: 311030200.

Date/timePositionNaut miles runAvg speedWind from/ knotsBaromVisibWave heightAir tempDewpointWater temp
2017-Apr-28 21:38N 31°15' E 029°47'0 1.0
2017-Apr-28 21:30N 31°14' E 029°47'3 0.6
2017-Apr-28 17:17N 31°14' E 029°44'0 0.0
2017-Apr-28 16:56N 31°14' E 029°44'  
2017-Apr-20 21:58N 31°08' E 029°49'1 0.2
2017-Apr-20 18:05N 31°09' E 029°48'59 9.0
2017-Apr-20 11:29N 32°04' E 029°23'712.7
2017-Apr-20 10:54N 32°11' E 029°20'512.4
2017-Apr-20 10:30N 32°15' E 029°18'612.3
2017-Apr-20 09:59N 32°21' E 029°15'712.3
2017-Apr-20 09:25N 32°28' E 029°12'512.4
2017-Apr-20 09:00N 32°33' E 029°10'32912.3
2017-Apr-19 06:18N 37°21' E 025°54'412.5
2017-Apr-19 06:00N 37°23' E 025°51'612.4
2017-Apr-19 05:30N 37°28' E 025°46'612.4
2017-Apr-19 05:00N 37°34' E 025°43'611.8
2017-Apr-19 04:30N 37°39' E 025°41'611.7
2017-Apr-19 04:00N 37°45' E 025°39'611.9
2017-Apr-19 03:30N 37°51' E 025°37'  
Track history (hours):
 
Tides and Currents Weather Stations Pressure Air Temp Water Temp Dewpoint Dewpoint Depression Visibility Wind Speed Wind Dir Waves Ship Positions

Serene Lydia

Last reported at 2017-Apr-28 21:38 UTC. Time now 2017-Apr-29 19:24 UTC.
Position N 31°15' E 029°47'.

Length 190 m; draft 12.8 m.

Type: Ship. MMSI: 311030200.

Date/timePositionNaut miles runAvg speedWind from/ knotsBaromVisibWave heightAir tempDewpointWater temp
2017-Apr-28 21:38N 31°15' E 029°47'0 1.0
2017-Apr-28 21:30N 31°14' E 029°47'3 0.6
2017-Apr-28 17:17N 31°14' E 029°44'0 0.0
2017-Apr-28 16:56N 31°14' E 029°44'  
2017-Apr-20 21:58N 31°08' E 029°49'1 0.2
2017-Apr-20 18:05N 31°09' E 029°48'59 9.0
2017-Apr-20 11:29N 32°04' E 029°23'712.7
2017-Apr-20 10:54N 32°11' E 029°20'512.4
2017-Apr-20 10:30N 32°15' E 029°18'612.3
2017-Apr-20 09:59N 32°21' E 029°15'712.3
2017-Apr-20 09:25N 32°28' E 029°12'512.4
2017-Apr-20 09:00N 32°33' E 029°10'32912.3
2017-Apr-19 06:18N 37°21' E 025°54'412.5
2017-Apr-19 06:00N 37°23' E 025°51'612.4
2017-Apr-19 05:30N 37°28' E 025°46'612.4
2017-Apr-19 05:00N 37°34' E 025°43'611.8
2017-Apr-19 04:30N 37°39' E 025°41'611.7
2017-Apr-19 04:00N 37°45' E 025°39'611.9
2017-Apr-19 03:30N 37°51' E 025°37'  

Dump ship's entire track history